Time;durP1;ratioP1;P1;durP2;ratioP2;P2;SDS_P1;SDS_P2;PMS_P1;PMS_P2;Temp;Humidity;BMP_temperature;BMP_pressure;BME280_temperature;BME280_humidity;BME280_pressure;Samples;Min_cycle;Max_cycle;Signal;HPM_P1;HPM_P2
2021/12/18 00:01:27;;;;;;;7.15;6.45;;;7.90;99.90;;;;;;5094744;28;21054;-56
2021/12/18 00:03:53;;;;;;;6.40;5.80;;;7.90;99.90;;;;;;5094478;28;20397;-58
2021/12/18 00:06:18;;;;;;;6.30;5.70;;;7.90;99.90;;;;;;5093790;28;20394;-58
2021/12/18 00:08:44;;;;;;;6.57;5.83;;;7.90;99.90;;;;;;5101329;28;20380;-59
2021/12/18 00:11:11;;;;;;;6.30;5.70;;;7.80;99.90;;;;;;5114043;28;20441;-54
2021/12/18 00:13:37;;;;;;;5.72;5.22;;;7.80;99.90;;;;;;5115342;28;20680;-59
2021/12/18 00:16:03;;;;;;;5.70;5.20;;;7.80;99.90;;;;;;5114367;28;20969;-58
2021/12/18 00:18:30;;;;;;;5.05;4.57;;;7.80;99.90;;;;;;5115382;28;20985;-59
2021/12/18 00:20:57;;;;;;;3.92;3.58;;;7.80;99.90;;;;;;5116787;28;20457;-57
2021/12/18 00:23:23;;;;;;;4.18;3.78;;;7.80;99.90;;;;;;5115444;28;20391;-57
2021/12/18 00:25:48;;;;;;;3.70;3.40;;;7.80;99.90;;;;;;5113999;28;20698;-56
2021/12/18 00:28:14;;;;;;;3.70;3.40;;;7.90;99.90;;;;;;5114853;28;20373;-59
2021/12/18 00:30:39;;;;;;;3.60;3.30;;;7.90;99.90;;;;;;5115067;28;20387;-58
2021/12/18 00:33:06;;;;;;;3.63;3.33;;;7.90;99.90;;;;;;5114610;28;20583;-59
2021/12/18 00:35:33;;;;;;;3.85;3.55;;;7.80;99.90;;;;;;5115813;28;20384;-59
2021/12/18 00:38:03;;;;;;;3.90;3.50;;;7.90;99.90;;;;;;5115669;28;20391;-57
2021/12/18 00:40:43;;;;;;;4.10;3.80;;;7.90;99.90;;;;;;5116137;28;20441;-58
2021/12/18 00:43:23;;;;;;;4.23;3.93;;;7.80;99.90;;;;;;5115285;28;20376;-56
2021/12/18 00:45:49;;;;;;;4.50;4.10;;;7.90;99.90;;;;;;5095677;28;20472;-59
2021/12/18 00:48:15;;;;;;;4.20;3.80;;;7.80;99.90;;;;;;5089429;28;20415;-58
2021/12/18 00:50:40;;;;;;;4.65;4.25;;;7.70;99.90;;;;;;5058738;28;20427;-53
2021/12/18 00:53:06;;;;;;;5.20;4.70;;;7.80;99.90;;;;;;5058130;28;20806;-53
2021/12/18 00:55:33;;;;;;;4.33;3.93;;;7.80;99.90;;;;;;5076911;28;20470;-57
2021/12/18 00:57:59;;;;;;;4.80;4.40;;;7.80;99.90;;;;;;5056754;28;20383;-59
2021/12/18 01:00:25;;;;;;;4.85;4.40;;;7.80;99.90;;;;;;5055517;28;20403;-59
2021/12/18 01:02:56;;;;;;;4.95;4.38;;;7.80;99.90;;;;;;5070244;28;20379;-58
2021/12/18 01:05:21;;;;;;;4.57;4.15;;;7.80;99.90;;;;;;5070369;28;20407;-54
2021/12/18 01:07:47;;;;;;;5.20;4.70;;;7.80;99.90;;;;;;5054225;28;20383;-59
2021/12/18 01:10:31;;;;;;;4.87;4.00;;;7.80;99.90;;;;;;5052357;28;20395;-57
2021/12/18 01:12:59;;;;;;;4.10;3.70;;;7.80;99.90;;;;;;5070595;28;20387;-56
2021/12/18 01:15:30;;;;;;;3.92;3.53;;;7.80;99.90;;;;;;5052820;28;20380;-57
2021/12/18 01:23:26;;;;;;;3.20;2.67;;;7.80;99.90;;;;;;5068809;28;20387;-58
2021/12/18 01:25:53;;;;;;;2.63;2.38;;;7.80;99.90;;;;;;5068826;28;20651;-55
2021/12/18 01:28:19;;;;;;;3.00;2.45;;;7.80;99.90;;;;;;5052984;28;20694;-58
2021/12/18 01:30:45;;;;;;;2.63;2.38;;;7.80;99.90;;;;;;5054426;28;20795;-55
2021/12/18 01:33:10;;;;;;;2.60;2.40;;;7.80;99.90;;;;;;5053586;28;20454;-58
2021/12/18 01:35:36;;;;;;;3.33;2.95;;;7.80;99.90;;;;;;5054799;28;20667;-57
2021/12/18 01:38:02;;;;;;;3.00;2.70;;;7.80;99.90;;;;;;5054334;28;20379;-55
2021/12/18 01:40:28;;;;;;;2.67;2.40;;;7.80;99.90;;;;;;5052357;28;20398;-58
2021/12/18 01:45:36;;;;;;;3.55;3.03;;;7.90;99.90;;;;;;5087952;28;20801;-59
2021/12/18 01:53:31;;;;;;;6.17;5.43;;;7.80;99.90;;;;;;5093234;28;20491;-59
2021/12/18 01:55:57;;;;;;;8.03;6.20;;;7.80;99.90;;;;;;5092203;28;20423;-59
2021/12/18 01:58:24;;;;;;;8.87;6.87;;;7.80;99.90;;;;;;5090610;28;20435;-58
2021/12/18 02:00:52;;;;;;;8.70;6.53;;;7.80;99.90;;;;;;5087969;28;20382;-58
2021/12/18 02:03:18;;;;;;;9.30;7.10;;;7.80;99.90;;;;;;5087645;28;20824;-59
2021/12/18 02:05:44;;;;;;;8.43;6.85;;;7.80;99.90;;;;;;5088106;28;20394;-57
2021/12/18 02:08:09;;;;;;;7.97;5.90;;;7.80;99.90;;;;;;5087792;28;20389;-57
2021/12/18 02:10:48;;;;;;;7.63;5.63;;;7.80;99.90;;;;;;5088392;28;20821;-59
2021/12/18 02:13:25;;;;;;;6.82;4.50;;;7.80;99.90;;;;;;5089318;28;20469;-55
2021/12/18 02:21:22;;;;;;;6.15;3.60;;;7.70;99.90;;;;;;5090877;28;20420;-58
2021/12/18 02:23:49;;;;;;;5.33;3.70;;;7.70;99.90;;;;;;5090017;28;20467;-59
2021/12/18 02:26:14;;;;;;;6.38;3.67;;;7.80;99.90;;;;;;5089094;28;20366;-55
2021/12/18 02:28:44;;;;;;;5.45;3.55;;;7.80;99.90;;;;;;5087457;28;20432;-57
2021/12/18 02:31:10;;;;;;;5.57;3.55;;;7.80;99.90;;;;;;5088381;28;20709;-59
2021/12/18 02:33:36;;;;;;;5.45;3.85;;;7.80;99.90;;;;;;5089237;28;20485;-58
2021/12/18 02:36:05;;;;;;;5.22;4.00;;;7.70;99.90;;;;;;5089518;28;20480;-59
2021/12/18 02:38:57;;;;;;;4.25;3.17;;;7.70;99.90;;;;;;5089943;28;20381;-56
2021/12/18 02:41:38;;;;;;;7.10;4.40;;;7.70;99.90;;;;;;5089869;28;20390;-55
2021/12/18 02:44:09;;;;;;;6.30;4.07;;;7.70;99.90;;;;;;5091834;28;20426;-58
2021/12/18 02:46:36;;;;;;;6.72;4.70;;;7.80;99.90;;;;;;5091272;28;20423;-58
2021/12/18 02:49:10;;;;;;;6.65;4.68;;;7.70;99.90;;;;;;5092530;28;20535;-58
2021/12/18 02:51:36;;;;;;;5.97;4.45;;;7.80;99.90;;;;;;5089962;28;20385;-58
2021/12/18 02:54:02;;;;;;;5.85;4.00;;;7.70;99.90;;;;;;5091771;28;20390;-58
2021/12/18 02:56:27;;;;;;;7.25;4.43;;;7.80;99.90;;;;;;5091896;28;20394;-55
2021/12/18 02:58:58;;;;;;;6.93;4.68;;;7.80;99.90;;;;;;5090432;28;20735;-55
2021/12/18 03:01:25;;;;;;;6.45;4.38;;;7.80;99.90;;;;;;5091202;28;20393;-58
2021/12/18 03:03:53;;;;;;;6.22;4.05;;;7.80;99.90;;;;;;5091350;28;20382;-59
2021/12/18 03:06:28;;;;;;;5.18;4.00;;;7.80;99.90;;;;;;5090956;28;20750;-59
2021/12/18 03:24:58;;;;;;;6.15;4.38;;;7.80;99.90;;;;;;5073512;28;20457;-57
2021/12/18 03:27:25;;;;;;;6.45;4.85;;;7.80;99.90;;;;;;5091183;28;20471;-59
2021/12/18 03:29:50;;;;;;;5.80;4.50;;;7.80;99.90;;;;;;5093428;28;20406;-59
2021/12/18 03:32:16;;;;;;;5.40;4.50;;;7.80;99.90;;;;;;5093921;28;20391;-59
2021/12/18 03:34:42;;;;;;;6.80;4.85;;;7.80;99.90;;;;;;5094061;28;20396;-58
2021/12/18 03:37:08;;;;;;;7.60;4.90;;;7.80;99.90;;;;;;5094105;28;20387;-59
2021/12/18 03:39:35;;;;;;;6.20;4.43;;;7.80;99.90;;;;;;5095011;28;20486;-59
2021/12/18 03:42:01;;;;;;;5.97;4.57;;;7.70;99.90;;;;;;5078716;28;20417;-59
2021/12/18 03:44:27;;;;;;;4.88;4.10;;;7.80;99.90;;;;;;5094242;28;20418;-58
2021/12/18 03:46:52;;;;;;;5.47;3.97;;;7.80;99.90;;;;;;5091787;28;20417;-59
2021/12/18 03:49:18;;;;;;;5.20;4.15;;;7.80;99.90;;;;;;5097763;28;20382;-57
2021/12/18 03:51:43;;;;;;;4.30;3.77;;;7.80;99.90;;;;;;5097385;28;20940;-59
2021/12/18 03:54:09;;;;;;;6.23;4.47;;;7.90;99.90;;;;;;5098249;28;20481;-59
2021/12/18 03:56:35;;;;;;;5.43;3.58;;;7.90;99.90;;;;;;5099131;28;20493;-59
2021/12/18 03:59:00;;;;;;;5.10;3.72;;;7.90;99.90;;;;;;5099193;28;20673;-55
2021/12/18 04:01:26;;;;;;;5.43;4.17;;;7.90;99.90;;;;;;5097818;28;20414;-55
2021/12/18 04:03:52;;;;;;;5.20;3.90;;;7.90;99.90;;;;;;5096629;28;20405;-59
2021/12/18 04:06:20;;;;;;;6.10;4.10;;;7.90;99.90;;;;;;5098385;28;20382;-59
2021/12/18 04:08:46;;;;;;;4.20;3.80;;;7.90;99.90;;;;;;5097391;28;20390;-57
2021/12/18 04:11:12;;;;;;;4.75;3.97;;;7.90;99.90;;;;;;5096324;28;20397;-56
2021/12/18 04:13:43;;;;;;;4.83;4.07;;;7.90;99.90;;;;;;5095665;28;20459;-58
2021/12/18 04:16:08;;;;;;;5.15;4.05;;;7.90;99.90;;;;;;5096557;28;20390;-59
2021/12/18 04:18:34;;;;;;;5.13;3.75;;;7.90;99.90;;;;;;5096337;28;20457;-57
2021/12/18 04:20:59;;;;;;;4.67;3.77;;;7.90;99.90;;;;;;5091396;28;20604;-58
2021/12/18 04:23:25;;;;;;;5.50;3.90;;;7.90;99.90;;;;;;5088187;28;20389;-56
2021/12/18 04:25:51;;;;;;;4.55;3.60;;;7.80;99.90;;;;;;5088889;28;20404;-58
2021/12/18 04:28:16;;;;;;;5.00;3.97;;;7.90;99.90;;;;;;5088760;28;20577;-58
2021/12/18 04:30:42;;;;;;;4.95;3.83;;;7.80;99.90;;;;;;5073830;28;20668;-58
2021/12/18 04:33:07;;;;;;;4.10;3.63;;;7.80;99.90;;;;;;5089825;28;20388;-59
2021/12/18 04:35:33;;;;;;;4.32;3.55;;;7.90;99.90;;;;;;5089743;28;20375;-56
2021/12/18 04:37:58;;;;;;;4.35;3.30;;;7.80;99.90;;;;;;5074059;28;20387;-58
2021/12/18 04:40:26;;;;;;;4.50;3.67;;;7.90;99.90;;;;;;5088737;28;20427;-59
2021/12/18 04:42:53;;;;;;;4.55;3.58;;;7.90;99.90;;;;;;5073429;28;20398;-59
2021/12/18 04:45:19;;;;;;;4.70;3.70;;;7.90;99.90;;;;;;5074399;28;20443;-59
2021/12/18 04:47:44;;;;;;;4.95;3.80;;;7.90;99.90;;;;;;5091035;28;20427;-57
2021/12/18 04:50:10;;;;;;;4.35;3.47;;;7.90;99.90;;;;;;5073648;28;20767;-57
2021/12/18 04:52:36;;;;;;;3.90;3.15;;;7.90;99.90;;;;;;5089369;28;20392;-59
2021/12/18 04:55:02;;;;;;;4.33;3.33;;;7.90;99.90;;;;;;5090573;28;20830;-57
2021/12/18 04:57:28;;;;;;;4.22;3.17;;;7.90;99.90;;;;;;5090420;28;20388;-58
2021/12/18 04:59:54;;;;;;;3.72;3.20;;;7.90;99.90;;;;;;5089773;28;20472;-57
2021/12/18 05:02:23;;;;;;;4.65;3.40;;;7.90;99.90;;;;;;5072109;28;20411;-58
2021/12/18 05:04:49;;;;;;;3.58;3.00;;;7.90;99.90;;;;;;5070749;28;20403;-58
2021/12/18 05:07:14;;;;;;;5.17;3.90;;;7.90;99.90;;;;;;5088348;28;20465;-57
2021/12/18 05:09:41;;;;;;;4.30;3.90;;;7.90;99.90;;;;;;5089076;28;20715;-57
2021/12/18 05:12:08;;;;;;;4.95;3.90;;;7.90;99.90;;;;;;5089183;28;20376;-59
2021/12/18 05:14:34;;;;;;;6.03;3.90;;;7.90;99.90;;;;;;5088487;28;20415;-58
2021/12/18 05:17:00;;;;;;;4.88;3.72;;;7.90;99.90;;;;;;5072476;28;20639;-58
2021/12/18 05:19:26;;;;;;;4.10;3.70;;;7.90;99.90;;;;;;5070882;28;20391;-59
2021/12/18 05:21:51;;;;;;;6.22;4.00;;;7.90;99.90;;;;;;5088153;28;20803;-58
2021/12/18 05:24:17;;;;;;;3.42;3.10;;;7.90;99.90;;;;;;5088584;28;20458;-58
2021/12/18 05:26:42;;;;;;;4.07;3.00;;;7.90;99.90;;;;;;5089189;28;20387;-59
2021/12/18 05:29:08;;;;;;;3.20;2.80;;;7.90;99.90;;;;;;5073029;28;20399;-58
2021/12/18 05:31:34;;;;;;;3.10;2.80;;;7.90;99.90;;;;;;5088099;28;20403;-58
2021/12/18 05:34:02;;;;;;;2.78;2.35;;;7.90;99.90;;;;;;5087917;28;20756;-55
2021/12/18 05:37:12;;;;;;;3.20;2.50;;;7.90;99.90;;;;;;5072011;28;20386;-58
2021/12/18 05:39:29;;;;;;;2.80;2.08;;;7.90;99.90;;;;;;5072439;28;20609;-58
2021/12/18 05:41:56;;;;;;;2.78;1.88;;;7.90;99.90;;;;;;5089747;28;20386;-58
2021/12/18 05:44:25;;;;;;;2.42;2.00;;;7.90;99.90;;;;;;5088415;28;20579;-59
2021/12/18 05:46:52;;;;;;;2.00;1.70;;;7.90;99.90;;;;;;5072391;28;20486;-56
2021/12/18 05:49:19;;;;;;;2.40;1.77;;;7.80;99.90;;;;;;5086430;28;20384;-59
2021/12/18 05:51:45;;;;;;;1.90;1.70;;;7.90;99.90;;;;;;5083581;28;20448;-59
2021/12/18 05:54:12;;;;;;;1.73;1.60;;;7.80;99.90;;;;;;5083642;28;20697;-59
2021/12/18 05:56:39;;;;;;;2.33;2.10;;;7.80;99.90;;;;;;5082286;28;20399;-58
2021/12/18 05:59:05;;;;;;;3.10;2.30;;;7.80;99.90;;;;;;5081708;28;20419;-58
2021/12/18 06:01:31;;;;;;;2.33;2.13;;;7.80;99.90;;;;;;5080915;28;20716;-59
2021/12/18 06:03:57;;;;;;;3.17;2.58;;;7.80;99.90;;;;;;5080516;28;20609;-59
2021/12/18 06:06:22;;;;;;;2.40;2.20;;;7.80;99.90;;;;;;5082458;28;20457;-57
2021/12/18 06:08:49;;;;;;;2.50;2.30;;;7.80;99.90;;;;;;5083472;28;20555;-57
2021/12/18 06:11:16;;;;;;;1.90;1.70;;;7.80;99.90;;;;;;5067451;28;20601;-59
2021/12/18 06:13:43;;;;;;;1.98;1.77;;;7.80;99.90;;;;;;5066114;28;20553;-59
2021/12/18 06:16:10;;;;;;;2.17;1.90;;;7.80;99.90;;;;;;5082595;28;20375;-59
2021/12/18 06:18:37;;;;;;;2.30;2.10;;;7.80;99.90;;;;;;5068501;28;20736;-58
2021/12/18 06:21:03;;;;;;;2.20;2.00;;;7.80;99.90;;;;;;5085620;28;20390;-59
2021/12/18 06:23:29;;;;;;;1.63;1.53;;;7.80;99.90;;;;;;5086632;28;20395;-57
2021/12/18 06:25:55;;;;;;;1.53;1.37;;;7.80;99.90;;;;;;5084636;28;20440;-59
2021/12/18 06:28:21;;;;;;;1.00;0.80;;;7.80;99.90;;;;;;5083003;28;20997;-59
2021/12/18 06:30:47;;;;;;;0.60;0.60;;;7.70;99.90;;;;;;5082910;28;20395;-59
2021/12/18 06:33:12;;;;;;;1.00;0.60;;;7.70;99.90;;;;;;5082357;28;20405;-55
2021/12/18 06:35:38;;;;;;;1.20;0.93;;;7.70;99.90;;;;;;5065013;28;20693;-58
2021/12/18 06:38:04;;;;;;;1.40;1.00;;;7.70;99.90;;;;;;5066486;28;20403;-58
2021/12/18 06:40:30;;;;;;;1.00;0.90;;;7.70;99.90;;;;;;5068445;28;20702;-59
2021/12/18 06:42:55;;;;;;;1.10;1.00;;;7.70;99.90;;;;;;5084222;28;20391;-58
2021/12/18 06:45:21;;;;;;;1.40;0.90;;;7.70;99.90;;;;;;5085234;28;20652;-57
2021/12/18 06:47:46;;;;;;;1.90;0.80;;;7.70;99.90;;;;;;5086053;28;20510;-59
2021/12/18 06:50:12;;;;;;;1.00;0.70;;;7.70;99.90;;;;;;5084155;28;20750;-59
2021/12/18 06:52:38;;;;;;;0.80;0.67;;;7.70;99.90;;;;;;5068464;28;20647;-58
2021/12/18 06:55:04;;;;;;;1.15;0.80;;;7.70;99.90;;;;;;5084697;28;20433;-59
2021/12/18 06:57:29;;;;;;;1.50;0.90;;;7.70;99.90;;;;;;5082607;28;20411;-59
2021/12/18 06:59:55;;;;;;;1.42;1.02;;;7.70;99.90;;;;;;5083702;28;20430;-58
2021/12/18 07:02:20;;;;;;;1.40;1.20;;;7.70;99.90;;;;;;5072140;28;20514;-58
2021/12/18 07:04:46;;;;;;;1.17;1.07;;;7.70;99.90;;;;;;5087841;28;20592;-59
2021/12/18 07:07:12;;;;;;;1.80;1.30;;;7.60;99.90;;;;;;5087239;28;20420;-58
2021/12/18 07:09:38;;;;;;;1.40;1.30;;;7.70;99.90;;;;;;5089674;28;20390;-58
2021/12/18 07:12:03;;;;;;;2.50;1.77;;;7.60;99.90;;;;;;5074749;28;20508;-57
2021/12/18 07:14:29;;;;;;;2.13;1.92;;;7.70;99.90;;;;;;5090946;28;20399;-59
2021/12/18 07:16:54;;;;;;;3.10;2.50;;;7.60;99.90;;;;;;5091425;28;20398;-58
2021/12/18 07:19:20;;;;;;;2.60;2.40;;;7.60;99.90;;;;;;5074666;28;20694;-56
2021/12/18 07:21:46;;;;;;;3.50;2.90;;;7.60;99.90;;;;;;5089265;28;20383;-56
2021/12/18 07:24:11;;;;;;;3.50;3.10;;;7.60;99.90;;;;;;5088962;28;20476;-62
2021/12/18 07:26:37;;;;;;;4.50;3.20;;;7.70;99.90;;;;;;5089395;28;20648;-58
2021/12/18 07:29:02;;;;;;;4.43;3.60;;;7.60;99.90;;;;;;5069552;28;20445;-58
2021/12/18 07:31:28;;;;;;;3.88;3.40;;;7.70;99.90;;;;;;5086498;28;20601;-58
2021/12/18 07:33:54;;;;;;;4.50;3.38;;;7.60;99.90;;;;;;5086676;28;20516;-58
2021/12/18 07:36:19;;;;;;;3.67;3.15;;;7.60;99.90;;;;;;5086650;28;20383;-59
2021/12/18 07:38:45;;;;;;;4.07;3.22;;;7.60;99.90;;;;;;5084154;28;20383;-58
2021/12/18 07:41:11;;;;;;;4.23;3.00;;;7.60;99.90;;;;;;5086629;28;20679;-58
2021/12/18 07:43:37;;;;;;;4.90;3.53;;;7.60;99.90;;;;;;5086695;28;20391;-56
2021/12/18 07:46:03;;;;;;;4.82;3.60;;;7.60;99.90;;;;;;5087371;28;20411;-59
2021/12/18 07:48:29;;;;;;;4.10;3.20;;;7.60;99.90;;;;;;5086381;28;20402;-58
2021/12/18 07:50:54;;;;;;;4.57;3.30;;;7.60;99.90;;;;;;5080642;28;20407;-59
2021/12/18 07:53:21;;;;;;;4.88;3.72;;;7.60;99.90;;;;;;5078523;28;20806;-59
2021/12/18 07:55:47;;;;;;;4.47;3.40;;;7.60;99.90;;;;;;5073184;28;20414;-58
2021/12/18 07:58:13;;;;;;;5.75;3.67;;;7.60;99.90;;;;;;5070555;28;20391;-58
2021/12/18 08:00:38;;;;;;;4.87;3.57;;;7.60;99.90;;;;;;5070112;28;20399;-58
2021/12/18 08:03:04;;;;;;;4.23;3.53;;;7.70;99.90;;;;;;5070563;28;20383;-58
2021/12/18 08:05:29;;;;;;;4.23;3.30;;;7.60;99.90;;;;;;5069002;28;20408;-58
2021/12/18 08:07:55;;;;;;;4.57;3.65;;;7.60;99.90;;;;;;5069257;28;20418;-58
2021/12/18 08:10:20;;;;;;;5.10;3.67;;;7.70;99.90;;;;;;5069646;28;20849;-56
2021/12/18 08:12:46;;;;;;;3.87;3.20;;;7.60;99.90;;;;;;5065806;28;20502;-58
2021/12/18 08:15:11;;;;;;;4.73;3.30;;;7.60;99.90;;;;;;5068159;28;20901;-58
2021/12/18 08:17:37;;;;;;;3.35;3.05;;;7.60;99.90;;;;;;5067649;28;20399;-56
2021/12/18 08:20:07;;;;;;;3.55;3.10;;;7.60;99.90;;;;;;5048923;28;20382;-58
2021/12/18 08:22:33;;;;;;;3.67;3.10;;;7.60;99.90;;;;;;5067761;28;20779;-57
2021/12/18 08:25:00;;;;;;;2.95;2.65;;;7.60;99.90;;;;;;5067480;28;20502;-59
2021/12/18 08:27:27;;;;;;;3.30;2.60;;;7.60;99.90;;;;;;5065715;28;20443;-57
2021/12/18 08:29:52;;;;;;;2.38;1.92;;;7.60;99.90;;;;;;5066461;28;20399;-59
2021/12/18 08:32:18;;;;;;;1.65;1.55;;;7.60;99.90;;;;;;5064258;28;20659;-58
2021/12/18 08:34:44;;;;;;;1.63;1.38;;;7.70;99.90;;;;;;5063874;28;20456;-57
2021/12/18 08:37:09;;;;;;;2.33;1.30;;;7.70;99.90;;;;;;5064490;28;20465;-57
2021/12/18 08:39:35;;;;;;;1.10;0.90;;;7.70;99.90;;;;;;5064338;28;20376;-58
2021/12/18 08:42:04;;;;;;;0.90;0.80;;;7.70;99.90;;;;;;5066658;28;20476;-59
2021/12/18 08:44:30;;;;;;;1.02;0.80;;;7.80;99.90;;;;;;5065791;28;20442;-58
2021/12/18 08:46:56;;;;;;;1.80;1.20;;;7.80;99.90;;;;;;5066519;28;20397;-56
2021/12/18 08:49:23;;;;;;;1.97;1.50;;;7.80;99.90;;;;;;5065870;28;20380;-58
2021/12/18 08:51:48;;;;;;;3.05;1.83;;;7.80;99.90;;;;;;5066455;28;20500;-56
2021/12/18 08:54:14;;;;;;;3.03;2.00;;;7.70;99.90;;;;;;5069120;28;20594;-57
2021/12/18 08:56:39;;;;;;;2.80;2.33;;;7.70;99.90;;;;;;5068635;28;20371;-58
2021/12/18 08:59:05;;;;;;;3.85;2.40;;;7.70;99.90;;;;;;5067468;28;20469;-56
2021/12/18 09:01:31;;;;;;;3.93;3.07;;;7.70;99.90;;;;;;5067999;28;20387;-55
2021/12/18 09:03:57;;;;;;;4.13;2.80;;;7.70;99.90;;;;;;5066533;28;20813;-58
2021/12/18 09:06:23;;;;;;;3.07;2.40;;;7.70;99.90;;;;;;5066745;28;20758;-56
2021/12/18 09:08:49;;;;;;;3.25;2.17;;;7.70;99.90;;;;;;5067292;28;20449;-58
2021/12/18 09:11:15;;;;;;;2.05;1.60;;;7.70;99.90;;;;;;5067502;28;20406;-58
2021/12/18 09:13:41;;;;;;;1.70;1.60;;;7.70;99.90;;;;;;5066002;28;20561;-59
2021/12/18 09:16:06;;;;;;;2.07;1.70;;;7.70;99.90;;;;;;5068092;28;20461;-59
2021/12/18 09:18:32;;;;;;;2.58;1.48;;;7.70;99.90;;;;;;5068869;28;20787;-58
2021/12/18 09:20:58;;;;;;;1.60;1.27;;;7.70;99.90;;;;;;5069488;28;20384;-58
2021/12/18 09:23:23;;;;;;;2.05;1.50;;;7.70;99.90;;;;;;5068932;28;20483;-58
2021/12/18 09:25:49;;;;;;;1.40;1.30;;;7.70;99.90;;;;;;5067373;28;20411;-58
2021/12/18 09:28:15;;;;;;;1.48;1.30;;;7.70;99.90;;;;;;5068800;28;20729;-58
2021/12/18 09:30:41;;;;;;;0.88;0.68;;;7.70;99.90;;;;;;5067265;28;20561;-57
2021/12/18 09:33:11;;;;;;;0.70;0.50;;;7.70;99.90;;;;;;5065314;28;20391;-58
2021/12/18 09:35:36;;;;;;;0.45;0.45;;;7.70;99.90;;;;;;5068648;28;20377;-59
2021/12/18 09:38:02;;;;;;;0.50;0.50;;;7.70;99.90;;;;;;5072992;28;20396;-59
2021/12/18 09:40:29;;;;;;;0.73;0.60;;;7.70;99.90;;;;;;5072630;28;20426;-59
2021/12/18 09:42:55;;;;;;;1.20;0.80;;;7.70;99.90;;;;;;5074363;28;20440;-56
2021/12/18 09:45:22;;;;;;;0.73;0.73;;;7.70;99.90;;;;;;5072277;28;20466;-58
2021/12/18 09:47:47;;;;;;;0.80;0.63;;;7.80;99.90;;;;;;5072599;28;20648;-57
2021/12/18 09:50:16;;;;;;;1.38;0.98;;;7.80;99.90;;;;;;5069805;28;20830;-56
2021/12/18 09:52:42;;;;;;;1.23;1.00;;;7.70;99.90;;;;;;5071769;28;20384;-60
2021/12/18 09:55:10;;;;;;;2.25;1.10;;;7.80;99.90;;;;;;5070664;28;20380;-60
2021/12/18 09:57:37;;;;;;;1.90;1.30;;;8.00;99.90;;;;;;5071294;28;20387;-60
2021/12/18 10:00:06;;;;;;;2.20;1.30;;;8.10;99.90;;;;;;5070213;28;20396;-57
2021/12/18 10:02:31;;;;;;;1.40;1.23;;;8.10;99.90;;;;;;5066901;28;20387;-58
2021/12/18 10:04:57;;;;;;;2.57;1.50;;;8.00;99.90;;;;;;5069214;28;20495;-57
2021/12/18 10:07:27;;;;;;;2.03;1.40;;;8.00;99.90;;;;;;5068758;28;20394;-58
2021/12/18 10:09:57;;;;;;;2.60;1.63;;;7.90;99.90;;;;;;5067766;28;20469;-56
2021/12/18 10:12:26;;;;;;;3.00;1.80;;;7.90;99.90;;;;;;5068051;28;20407;-54
2021/12/18 10:14:58;;;;;;;4.00;1.55;;;8.00;99.90;;;;;;5067984;28;20502;-56
2021/12/18 10:17:25;;;;;;;2.90;1.60;;;7.90;99.90;;;;;;5068565;28;20399;-58
2021/12/18 10:19:55;;;;;;;3.13;1.80;;;7.90;99.90;;;;;;5068457;28;20396;-57
2021/12/18 10:22:20;;;;;;;3.63;2.08;;;8.00;99.90;;;;;;5061945;28;20411;-58
2021/12/18 10:25:01;;;;;;;5.13;2.58;;;8.00;99.90;;;;;;5061015;28;20532;-56
2021/12/18 10:27:26;;;;;;;5.20;2.88;;;8.00;99.90;;;;;;5061826;28;20372;-58
2021/12/18 10:30:06;;;;;;;6.83;3.13;;;8.00;99.90;;;;;;5059311;28;20769;-58
2021/12/18 10:32:32;;;;;;;7.82;3.47;;;8.10;99.90;;;;;;5058527;28;20817;-55
2021/12/18 10:34:59;;;;;;;5.55;3.60;;;8.10;99.90;;;;;;5058645;28;20391;-58
2021/12/18 10:37:30;;;;;;;7.00;4.57;;;8.10;99.90;;;;;;5060322;28;20477;-58
2021/12/18 10:39:57;;;;;;;8.17;4.87;;;8.10;99.90;;;;;;5058932;28;20404;-58
2021/12/18 10:42:47;;;;;;;9.32;5.50;;;8.10;99.90;;;;;;5056927;28;20383;-58
2021/12/18 10:45:22;;;;;;;9.53;5.27;;;8.20;99.90;;;;;;5060467;28;20535;-58
2021/12/18 10:48:08;;;;;;;11.37;5.33;;;8.20;99.90;;;;;;5060050;28;21198;-58
2021/12/18 10:50:43;;;;;;;9.65;5.95;;;8.20;99.90;;;;;;5063019;28;20806;-57
2021/12/18 10:53:13;;;;;;;9.20;5.55;;;8.20;99.90;;;;;;5060445;28;20448;-59
2021/12/18 10:55:43;;;;;;;10.38;6.30;;;8.20;99.90;;;;;;5060777;28;20384;-57
2021/12/18 10:58:12;;;;;;;9.77;6.20;;;8.20;99.90;;;;;;5060983;28;20380;-57
2021/12/18 11:00:39;;;;;;;10.07;5.47;;;8.30;99.90;;;;;;5061032;28;20388;-58
2021/12/18 11:03:15;;;;;;;12.18;5.95;;;8.30;99.90;;;;;;5058835;28;20402;-58
2021/12/18 11:05:41;;;;;;;11.80;5.85;;;8.30;99.90;;;;;;5059084;28;20841;-58
2021/12/18 11:08:11;;;;;;;12.00;5.22;;;8.30;99.90;;;;;;5062121;28;20375;-58
2021/12/18 11:10:54;;;;;;;12.90;5.32;;;8.30;99.90;;;;;;5060767;28;20566;-58
2021/12/18 11:16:05;;;;;;;10.90;5.10;;;8.40;99.90;;;;;;5062952;28;20464;-58
2021/12/18 11:18:33;;;;;;;12.20;4.65;;;8.40;99.90;;;;;;5059191;28;20388;-58
2021/12/18 11:20:59;;;;;;;12.38;5.30;;;8.50;99.90;;;;;;5060304;28;20414;-57
2021/12/18 11:23:55;;;;;;;14.68;5.38;;;8.60;99.90;;;;;;5062167;28;20664;-57
2021/12/18 11:26:23;;;;;;;13.30;4.70;;;8.70;99.90;;;;;;5061497;28;20402;-58
2021/12/18 11:28:51;;;;;;;11.80;4.38;;;8.70;99.90;;;;;;5060043;28;20607;-58
2021/12/18 11:31:17;;;;;;;15.10;5.28;;;8.60;99.90;;;;;;5061047;28;21064;-58
2021/12/18 11:33:43;;;;;;;18.00;6.13;;;8.60;99.90;;;;;;5059244;28;20452;-55
2021/12/18 11:36:09;;;;;;;11.27;4.37;;;8.70;99.90;;;;;;5056926;28;20388;-56
2021/12/18 11:38:40;;;;;;;16.15;5.38;;;8.80;99.90;;;;;;5057404;28;20490;-55
2021/12/18 11:41:06;;;;;;;17.40;5.60;;;8.90;99.90;;;;;;5060399;28;20395;-54
2021/12/18 11:43:38;;;;;;;15.82;4.55;;;8.90;99.90;;;;;;5060788;28;20399;-57
2021/12/18 11:46:30;;;;;;;15.55;4.88;;;8.90;99.90;;;;;;5059252;28;20480;-58
2021/12/18 11:49:00;;;;;;;14.50;4.47;;;9.00;99.90;;;;;;5062837;28;20375;-57
2021/12/18 11:51:26;;;;;;;16.23;5.13;;;9.00;99.90;;;;;;5065740;28;20455;-58
2021/12/18 11:53:52;;;;;;;15.07;4.38;;;9.00;99.90;;;;;;5067221;28;20675;-58
2021/12/18 11:56:17;;;;;;;15.82;4.78;;;9.00;99.90;;;;;;5065753;28;20840;-56
2021/12/18 11:58:48;;;;;;;13.25;4.80;;;9.00;99.90;;;;;;5063221;28;20455;-58
2021/12/18 12:01:21;;;;;;;13.75;4.38;;;9.00;99.90;;;;;;5062077;28;21129;-58
2021/12/18 12:03:50;;;;;;;14.55;4.88;;;9.00;99.90;;;;;;5060817;28;20392;-54
2021/12/18 12:06:24;;;;;;;15.23;4.72;;;9.10;99.90;;;;;;5059164;28;20395;-59
2021/12/18 12:09:09;;;;;;;14.63;5.43;;;9.10;99.90;;;;;;5058615;28;20765;-55
2021/12/18 12:11:52;;;;;;;14.40;5.00;;;9.00;99.90;;;;;;5058661;28;20380;-58
2021/12/18 12:14:20;;;;;;;14.80;4.93;;;9.00;99.90;;;;;;5059470;28;20392;-57
2021/12/18 12:16:46;;;;;;;15.90;5.30;;;9.00;99.90;;;;;;5064581;28;20553;-59
2021/12/18 12:19:14;;;;;;;10.55;4.10;;;8.90;99.90;;;;;;5061677;28;20466;-58
2021/12/18 12:21:45;;;;;;;15.90;4.60;;;9.00;99.90;;;;;;5061356;28;20375;-59
2021/12/18 12:24:12;;;;;;;14.45;5.05;;;9.00;99.90;;;;;;5060885;28;20550;-59
2021/12/18 12:26:38;;;;;;;15.70;5.22;;;9.00;99.90;;;;;;5060630;28;20480;-56
2021/12/18 12:29:06;;;;;;;16.13;4.93;;;9.00;99.90;;;;;;5058944;28;20614;-58
2021/12/18 12:31:33;;;;;;;15.85;4.57;;;9.00;99.90;;;;;;5058727;28;20479;-56
2021/12/18 12:34:33;;;;;;;17.98;5.35;;;9.00;99.90;;;;;;5061262;28;20814;-58
2021/12/18 12:37:21;;;;;;;15.00;5.43;;;9.00;99.90;;;;;;5080321;28;20388;-57
2021/12/18 12:39:56;;;;;;;15.27;4.40;;;9.00;99.90;;;;;;5062506;28;20779;-56
2021/12/18 12:42:22;;;;;;;17.00;4.55;;;9.10;99.90;;;;;;5062908;28;20701;-57
2021/12/18 12:44:56;;;;;;;17.20;4.57;;;9.10;99.90;;;;;;5069318;28;20434;-59
2021/12/18 12:47:26;;;;;;;13.68;4.25;;;9.10;99.90;;;;;;5067757;28;20504;-58
2021/12/18 12:49:59;;;;;;;17.67;4.35;;;9.10;99.90;;;;;;5066634;28;20445;-56
2021/12/18 12:52:27;;;;;;;13.55;3.88;;;9.20;99.90;;;;;;5060744;28;20380;-59
2021/12/18 12:55:18;;;;;;;16.10;4.30;;;9.20;99.90;;;;;;5061453;28;20407;-57
2021/12/18 12:57:56;;;;;;;17.10;4.88;;;9.20;99.90;;;;;;5063405;28;20441;-58
2021/12/18 13:00:21;;;;;;;18.38;4.65;;;9.30;99.90;;;;;;5063599;28;20407;-57
2021/12/18 13:02:56;;;;;;;18.38;5.10;;;9.40;99.90;;;;;;5062684;28;20659;-59
2021/12/18 13:05:24;;;;;;;21.23;4.90;;;9.30;99.90;;;;;;5062603;28;20403;-59
2021/12/18 13:07:53;;;;;;;16.13;4.53;;;9.30;99.90;;;;;;5064205;28;20388;-59
2021/12/18 13:10:27;;;;;;;18.40;4.85;;;9.30;99.90;;;;;;5066753;28;20652;-58
2021/12/18 13:13:21;;;;;;;16.37;4.97;;;9.30;99.90;;;;;;5063566;28;20379;-57
2021/12/18 13:15:52;;;;;;;17.15;4.85;;;9.40;99.90;;;;;;5060517;28;20423;-60
2021/12/18 13:18:20;;;;;;;13.05;4.63;;;9.40;99.90;;;;;;5062132;28;20403;-59
2021/12/18 13:20:58;;;;;;;20.10;5.07;;;9.40;99.90;;;;;;5061418;28;20621;-59
2021/12/18 13:23:37;;;;;;;19.80;4.37;;;9.40;99.90;;;;;;5062564;28;20604;-60
2021/12/18 13:26:04;;;;;;;19.08;4.75;;;9.50;99.90;;;;;;5062516;28;20490;-60
2021/12/18 13:28:29;;;;;;;17.38;4.85;;;9.50;99.90;;;;;;5059854;28;20669;-59
2021/12/18 13:30:56;;;;;;;17.08;4.80;;;9.40;99.90;;;;;;5058833;28;20465;-59
2021/12/18 13:33:28;;;;;;;18.95;4.80;;;9.50;99.90;;;;;;5058590;28;20773;-59
2021/12/18 13:35:59;;;;;;;16.47;4.23;;;9.50;99.90;;;;;;5057549;28;20388;-57
2021/12/18 13:38:34;;;;;;;21.23;5.90;;;9.50;99.90;;;;;;5062205;28;20388;-58